Time;durP1;ratioP1;P1;durP2;ratioP2;P2;SDS_P1;SDS_P2;PMS_P1;PMS_P2;Temp;Humidity;BMP_temperature;BMP_pressure;BME280_temperature;BME280_humidity;BME280_pressure;Samples;Min_cycle;Max_cycle;Signal;HPM_P1;HPM_P2
2022/11/04 00:01:51;;;;;;;6.97;3.60;;;9.40;99.90;;;;;;5021396;28;20764;-81
2022/11/04 00:04:19;;;;;;;6.30;3.53;;;9.30;99.90;;;;;;5033273;28;20227;-81
2022/11/04 00:06:47;;;;;;;6.53;3.00;;;9.30;99.90;;;;;;5030155;28;20241;-81
2022/11/04 00:09:17;;;;;;;6.43;3.53;;;9.30;99.90;;;;;;5005096;28;20379;-80
2022/11/04 00:14:29;;;;;;;5.53;3.43;;;9.20;99.90;;;;;;5027872;28;20692;-80
2022/11/04 00:30:35;;;;;;;8.03;4.23;;;9.10;99.90;;;;;;5012601;28;20282;-80
2022/11/04 00:35:49;;;;;;;9.53;3.77;;;9.10;99.90;;;;;;5031109;28;20221;-80
2022/11/04 00:38:16;;;;;;;5.70;3.50;;;9.10;99.90;;;;;;5027282;28;20230;-80
2022/11/04 00:40:44;;;;;;;7.13;3.80;;;9.10;99.90;;;;;;5026393;28;20229;-80
2022/11/04 00:43:11;;;;;;;6.87;3.43;;;9.10;99.90;;;;;;5028553;28;20763;-79
2022/11/04 00:45:38;;;;;;;7.90;3.53;;;9.10;99.90;;;;;;5032312;28;20257;-79
2022/11/04 00:48:05;;;;;;;5.33;3.40;;;9.10;99.90;;;;;;5030494;28;20628;-80
2022/11/04 00:50:32;;;;;;;8.13;3.50;;;9.10;99.90;;;;;;5015930;28;20218;-80
2022/11/04 00:52:59;;;;;;;10.30;3.87;;;9.10;99.90;;;;;;5018514;28;20219;-79
2022/11/04 00:55:26;;;;;;;5.63;3.23;;;9.00;99.90;;;;;;5031869;28;20226;-79
2022/11/04 00:57:54;;;;;;;7.23;3.93;;;9.10;99.90;;;;;;5034924;28;20226;-79
2022/11/04 01:00:21;;;;;;;7.73;4.03;;;9.10;99.90;;;;;;5037222;28;20224;-80
2022/11/04 01:02:48;;;;;;;8.47;4.67;;;9.10;99.90;;;;;;5033928;28;20337;-78
2022/11/04 01:05:14;;;;;;;7.37;3.80;;;9.00;99.90;;;;;;5034715;28;20227;-80
2022/11/04 01:07:41;;;;;;;7.03;3.73;;;9.00;99.90;;;;;;5014677;28;20275;-78
2022/11/04 01:10:09;;;;;;;7.00;3.70;;;9.10;99.90;;;;;;5028341;28;20961;-79
2022/11/04 01:12:36;;;;;;;7.40;3.50;;;9.00;99.90;;;;;;5014033;28;20231;-79
2022/11/04 01:15:06;;;;;;;6.83;4.03;;;9.10;99.90;;;;;;5025183;28;20223;-80
2022/11/04 01:17:33;;;;;;;7.43;3.90;;;9.10;99.90;;;;;;5016635;28;20300;-81
2022/11/04 01:20:00;;;;;;;6.47;3.60;;;9.10;99.90;;;;;;5028024;28;20247;-79
2022/11/04 01:22:26;;;;;;;9.37;3.60;;;9.10;99.90;;;;;;5030408;28;20314;-80
2022/11/04 01:24:53;;;;;;;5.13;3.77;;;9.10;99.90;;;;;;5027127;28;20220;-79
2022/11/04 01:27:20;;;;;;;5.73;3.80;;;9.20;99.90;;;;;;5009672;28;20230;-80
2022/11/04 01:29:46;;;;;;;5.73;3.10;;;9.20;99.90;;;;;;5028138;28;20240;-80
2022/11/04 01:32:14;;;;;;;6.00;3.50;;;9.20;99.90;;;;;;5015310;28;20228;-80
2022/11/04 01:34:41;;;;;;;6.97;3.87;;;9.20;99.90;;;;;;5022791;28;20296;-79
2022/11/04 01:37:08;;;;;;;7.13;3.80;;;9.20;99.90;;;;;;5007339;28;20237;-81
2022/11/04 01:39:34;;;;;;;6.70;3.47;;;9.30;99.90;;;;;;5011559;28;20226;-79
2022/11/04 01:42:01;;;;;;;7.73;4.13;;;9.30;99.90;;;;;;5014575;28;20219;-79
2022/11/04 01:44:54;;;;;;;7.63;4.43;;;9.30;99.90;;;;;;5015937;28;20228;-79
2022/11/04 01:47:28;;;;;;;7.57;3.90;;;9.30;99.90;;;;;;5026218;28;20224;-79
2022/11/04 01:49:59;;;;;;;4.53;3.50;;;9.30;99.90;;;;;;5038942;28;20780;-79
2022/11/04 01:52:30;;;;;;;6.90;4.27;;;9.30;99.90;;;;;;5033754;28;20227;-79
2022/11/04 01:55:02;;;;;;;8.00;4.30;;;9.30;99.90;;;;;;5031783;28;20226;-79
2022/11/04 01:57:35;;;;;;;5.33;3.57;;;9.30;99.90;;;;;;5031837;28;20224;-79
2022/11/04 02:00:04;;;;;;;5.97;3.77;;;9.40;99.90;;;;;;5007533;28;20850;-78
2022/11/04 02:02:48;;;;;;;9.03;3.73;;;9.30;99.90;;;;;;5030673;28;20219;-80
2022/11/04 02:05:14;;;;;;;7.20;3.77;;;9.30;99.90;;;;;;5011472;28;20221;-79
2022/11/04 02:07:41;;;;;;;9.13;4.13;;;9.40;99.90;;;;;;5031848;28;20220;-79
2022/11/04 02:10:09;;;;;;;6.63;3.73;;;9.40;99.90;;;;;;5036573;28;20724;-79
2022/11/04 02:12:50;;;;;;;6.13;3.90;;;9.40;99.90;;;;;;5034307;28;20595;-79
2022/11/04 02:15:22;;;;;;;6.83;3.80;;;9.40;99.90;;;;;;5005851;28;20209;-79
2022/11/04 02:18:05;;;;;;;8.73;4.27;;;9.50;99.90;;;;;;4995113;28;20225;-79
2022/11/04 02:20:51;;;;;;;7.73;3.93;;;9.50;99.90;;;;;;4988883;28;20227;-79
2022/11/04 02:24:01;;;;;;;8.53;4.00;;;9.50;99.90;;;;;;5008017;28;20225;-79
2022/11/04 02:27:17;;;;;;;6.27;3.77;;;9.50;99.90;;;;;;4988617;28;20264;-79
2022/11/04 02:30:03;;;;;;;6.50;3.97;;;9.60;99.90;;;;;;5007810;28;20233;-79
2022/11/04 02:32:40;;;;;;;6.67;4.50;;;9.60;99.90;;;;;;5005294;28;20251;-79
2022/11/04 02:35:12;;;;;;;4.90;4.10;;;9.60;99.90;;;;;;5006479;28;20221;-80
2022/11/04 02:37:47;;;;;;;5.73;4.13;;;9.50;99.90;;;;;;5003330;28;20902;-79
2022/11/04 02:40:22;;;;;;;7.03;4.30;;;9.50;99.90;;;;;;4996343;28;20227;-79
2022/11/04 02:42:56;;;;;;;10.67;4.63;;;9.60;99.90;;;;;;5003259;28;20322;-80
2022/11/04 02:45:31;;;;;;;6.40;4.10;;;9.50;99.90;;;;;;5004548;28;20243;-80
2022/11/04 02:48:05;;;;;;;5.77;4.20;;;9.50;99.90;;;;;;4990518;28;20234;-79
2022/11/04 02:50:36;;;;;;;8.83;4.70;;;9.50;99.90;;;;;;4992258;28;20223;-80
2022/11/04 02:53:10;;;;;;;7.10;4.70;;;9.50;99.90;;;;;;5003289;28;20687;-78
2022/11/04 02:55:41;;;;;;;6.77;4.40;;;9.50;99.90;;;;;;5006981;28;20228;-79
2022/11/04 02:58:13;;;;;;;8.73;4.87;;;9.50;99.90;;;;;;5005432;28;20228;-79
2022/11/04 03:00:43;;;;;;;6.93;4.63;;;9.50;99.90;;;;;;4989220;28;20869;-78
2022/11/04 03:03:14;;;;;;;9.30;5.00;;;9.40;99.90;;;;;;4994618;28;20252;-79
2022/11/04 03:05:44;;;;;;;12.40;5.77;;;9.40;99.90;;;;;;5007394;28;20246;-79
2022/11/04 03:08:15;;;;;;;9.27;5.10;;;9.40;99.90;;;;;;5006386;28;20745;-80
2022/11/04 03:10:45;;;;;;;9.07;5.23;;;9.40;99.90;;;;;;4996339;28;20319;-80
2022/11/04 03:13:16;;;;;;;6.03;4.87;;;9.40;99.90;;;;;;5014219;28;20229;-78
2022/11/04 03:15:48;;;;;;;6.73;4.53;;;9.30;99.90;;;;;;5010518;28;20518;-79
2022/11/04 03:18:22;;;;;;;8.73;5.10;;;9.30;99.90;;;;;;5011114;28;20224;-79
2022/11/04 03:20:51;;;;;;;8.30;5.10;;;9.30;99.90;;;;;;5031055;28;20232;-78
2022/11/04 03:23:18;;;;;;;7.40;5.07;;;9.30;99.90;;;;;;5029708;28;20696;-80
2022/11/04 03:25:47;;;;;;;6.97;4.63;;;9.30;99.90;;;;;;5019921;28;20707;-80
2022/11/04 03:28:25;;;;;;;9.20;5.27;;;9.30;99.90;;;;;;5026999;28;20701;-80
2022/11/04 03:30:56;;;;;;;7.87;4.90;;;9.30;99.90;;;;;;5026020;28;20256;-79
2022/11/04 03:33:30;;;;;;;7.80;5.03;;;9.30;99.90;;;;;;5008532;28;20233;-80
2022/11/04 03:35:57;;;;;;;6.40;5.23;;;9.30;99.90;;;;;;5001724;28;20224;-81
2022/11/04 03:38:24;;;;;;;9.43;5.30;;;9.30;99.90;;;;;;5045595;28;20242;-81
2022/11/04 03:40:51;;;;;;;10.73;5.30;;;9.30;99.90;;;;;;5025680;28;20236;-80
2022/11/04 03:43:23;;;;;;;7.57;5.33;;;9.30;99.90;;;;;;5014759;28;20256;-80
2022/11/04 03:45:50;;;;;;;9.90;5.87;;;9.30;99.90;;;;;;5045564;28;20242;-81
2022/11/04 03:48:20;;;;;;;10.57;5.20;;;9.30;99.90;;;;;;5019953;28;20933;-81
2022/11/04 03:50:51;;;;;;;9.60;5.50;;;9.30;99.90;;;;;;5014375;28;20735;-81
2022/11/04 03:53:21;;;;;;;8.00;5.90;;;9.30;99.90;;;;;;5013785;28;20307;-82
2022/11/04 03:56:07;;;;;;;8.87;5.70;;;9.30;99.90;;;;;;5032540;28;20677;-81
2022/11/04 03:58:42;;;;;;;9.20;6.20;;;9.30;99.90;;;;;;5031177;28;20236;-82
2022/11/04 04:01:20;;;;;;;8.50;5.80;;;9.30;99.90;;;;;;5026867;28;20218;-81
2022/11/04 04:03:55;;;;;;;10.50;5.70;;;9.30;99.90;;;;;;5032468;28;20335;-80
2022/11/04 04:06:28;;;;;;;9.13;5.80;;;9.20;99.90;;;;;;5013612;28;20229;-82
2022/11/04 04:08:58;;;;;;;8.13;5.83;;;9.30;99.90;;;;;;5014892;28;20227;-82
2022/11/04 04:11:34;;;;;;;7.97;5.90;;;9.30;99.90;;;;;;5014305;28;20223;-81
2022/11/04 04:14:05;;;;;;;8.33;6.80;;;9.30;99.90;;;;;;5030814;28;20215;-80
2022/11/04 04:16:37;;;;;;;8.87;6.53;;;9.30;99.90;;;;;;5012288;28;20228;-80
2022/11/04 04:19:10;;;;;;;11.03;5.40;;;9.30;99.90;;;;;;5023221;28;20228;-81
2022/11/04 04:21:42;;;;;;;11.37;6.27;;;9.40;99.90;;;;;;5033410;28;20298;-83
2022/11/04 04:29:42;;;;;;;8.67;5.83;;;9.30;99.90;;;;;;5019657;28;20232;-83
2022/11/04 04:32:10;;;;;;;10.07;6.90;;;9.40;99.90;;;;;;5015482;28;20228;-87
2022/11/04 04:34:38;;;;;;;9.63;6.40;;;9.40;99.90;;;;;;5015991;28;20228;-83
2022/11/04 04:37:11;;;;;;;10.20;6.10;;;9.30;99.90;;;;;;5033738;28;20239;-82
2022/11/04 04:45:22;;;;;;;8.67;6.30;;;9.40;99.90;;;;;;5047063;28;20590;-82
2022/11/04 04:47:49;;;;;;;7.70;6.17;;;9.40;99.90;;;;;;5029437;28;20238;-84
2022/11/04 04:50:19;;;;;;;7.73;5.77;;;9.40;99.90;;;;;;5014679;28;20312;-81
2022/11/04 04:52:48;;;;;;;9.37;5.90;;;9.40;99.90;;;;;;5017084;28;20228;-81
2022/11/04 04:55:15;;;;;;;13.30;6.60;;;9.40;99.90;;;;;;5015484;28;20315;-81
2022/11/04 04:57:42;;;;;;;8.50;5.13;;;9.40;99.90;;;;;;5016458;28;20235;-81
2022/11/04 05:00:15;;;;;;;8.53;5.63;;;9.40;99.90;;;;;;5015656;28;20581;-81
2022/11/04 05:02:42;;;;;;;7.80;5.77;;;9.50;99.90;;;;;;5016136;28;20256;-82
2022/11/04 05:05:12;;;;;;;7.93;5.50;;;9.40;99.90;;;;;;5027033;28;20229;-82
2022/11/04 05:07:40;;;;;;;7.97;4.90;;;9.50;99.90;;;;;;5011848;28;20232;-82
2022/11/04 05:10:09;;;;;;;6.37;4.43;;;9.50;99.90;;;;;;5012641;28;20236;-83
2022/11/04 05:15:20;;;;;;;5.90;4.40;;;9.50;99.90;;;;;;5016104;28;20219;-83
2022/11/04 05:17:47;;;;;;;5.93;3.87;;;9.50;99.90;;;;;;5028349;28;20341;-82
2022/11/04 05:20:14;;;;;;;4.40;3.53;;;9.60;99.90;;;;;;5016242;28;20229;-83
2022/11/04 05:22:42;;;;;;;4.93;3.07;;;9.60;99.90;;;;;;5031621;28;20254;-83
2022/11/04 05:25:09;;;;;;;4.27;2.97;;;9.60;99.90;;;;;;5029653;28;20711;-82
2022/11/04 05:27:35;;;;;;;4.47;3.17;;;9.70;99.90;;;;;;5029459;28;20380;-82
2022/11/04 05:30:02;;;;;;;3.50;2.80;;;9.70;99.90;;;;;;5010744;28;20232;-84
2022/11/04 05:32:30;;;;;;;3.63;2.93;;;9.70;99.90;;;;;;5020354;28;20221;-85
2022/11/04 05:34:56;;;;;;;4.17;2.63;;;9.70;99.90;;;;;;5026826;28;20236;-83
2022/11/04 05:37:23;;;;;;;3.77;2.57;;;9.70;99.90;;;;;;5007737;28;20235;-81
2022/11/04 05:39:51;;;;;;;2.93;2.53;;;9.70;99.90;;;;;;5024095;28;20699;-82
2022/11/04 05:42:18;;;;;;;3.53;2.40;;;9.70;99.90;;;;;;5025127;28;20293;-82
2022/11/04 05:44:45;;;;;;;2.37;2.00;;;9.80;99.90;;;;;;5005665;28;20232;-83
2022/11/04 05:47:12;;;;;;;2.93;2.20;;;9.80;99.90;;;;;;5020333;28;20228;-84
2022/11/04 05:49:38;;;;;;;3.73;2.20;;;9.80;99.90;;;;;;5022147;28;20224;-82
2022/11/04 05:52:13;;;;;;;4.10;2.30;;;9.80;99.90;;;;;;5014648;28;20699;-83
2022/11/04 05:54:39;;;;;;;4.03;2.17;;;9.80;99.90;;;;;;5020728;28;20255;-82
2022/11/04 05:57:09;;;;;;;2.00;1.77;;;9.80;99.90;;;;;;5018758;28;20316;-82
2022/11/04 05:59:36;;;;;;;3.20;2.07;;;9.80;99.90;;;;;;5018735;28;20318;-83
2022/11/04 06:02:03;;;;;;;3.53;1.97;;;9.80;99.90;;;;;;5013624;28;20233;-82
2022/11/04 06:04:30;;;;;;;4.20;2.30;;;9.90;99.90;;;;;;5004426;28;20251;-83
2022/11/04 06:06:57;;;;;;;3.30;2.00;;;9.80;99.90;;;;;;5020917;28;20220;-81
2022/11/04 06:09:37;;;;;;;3.33;2.10;;;9.90;99.90;;;;;;5003264;28;20237;-80
2022/11/04 06:12:07;;;;;;;3.27;2.33;;;9.90;99.90;;;;;;5017939;28;20219;-82
2022/11/04 06:14:34;;;;;;;3.73;1.80;;;9.90;99.90;;;;;;5017809;28;20361;-82
2022/11/04 06:17:01;;;;;;;2.80;2.27;;;9.90;99.90;;;;;;5012419;28;20229;-81
2022/11/04 06:19:28;;;;;;;2.73;2.23;;;9.90;99.90;;;;;;5021698;28;20225;-82
2022/11/04 06:21:56;;;;;;;2.40;2.00;;;9.90;99.90;;;;;;5022207;28;20667;-82
2022/11/04 06:24:23;;;;;;;2.60;2.03;;;9.90;99.90;;;;;;5019461;28;20227;-82
2022/11/04 06:26:50;;;;;;;2.63;2.00;;;9.90;99.90;;;;;;5020049;28;20331;-82
2022/11/04 06:29:18;;;;;;;2.13;1.93;;;9.90;99.90;;;;;;5016675;28;20223;-81
2022/11/04 06:31:45;;;;;;;2.40;2.20;;;9.90;99.90;;;;;;5016620;28;20734;-82
2022/11/04 06:34:11;;;;;;;2.77;1.90;;;9.90;99.90;;;;;;5002658;28;20228;-81
2022/11/04 06:36:38;;;;;;;3.33;2.20;;;9.90;99.90;;;;;;5019971;28;20239;-83
2022/11/04 06:39:05;;;;;;;2.60;2.13;;;9.90;99.90;;;;;;5023162;28;20559;-82
2022/11/04 06:41:31;;;;;;;4.63;2.50;;;10.00;99.90;;;;;;5024531;28;20217;-82
2022/11/04 06:44:01;;;;;;;3.37;2.23;;;9.90;99.90;;;;;;5021155;28;20593;-83
2022/11/04 06:46:33;;;;;;;2.50;2.30;;;9.90;99.90;;;;;;5019159;28;20254;-81
2022/11/04 06:49:00;;;;;;;4.77;2.73;;;10.00;99.90;;;;;;5006035;28;20220;-81
2022/11/04 06:51:27;;;;;;;2.57;2.10;;;9.90;99.90;;;;;;5002821;28;20552;-82
2022/11/04 06:53:54;;;;;;;5.40;2.20;;;10.00;99.90;;;;;;5020040;28;20282;-83
2022/11/04 06:56:21;;;;;;;4.20;3.20;;;10.00;99.90;;;;;;5018905;28;21022;-81
2022/11/04 06:58:48;;;;;;;4.10;2.87;;;10.00;99.90;;;;;;5019668;28;20331;-82
2022/11/04 07:01:15;;;;;;;3.10;2.40;;;10.00;99.90;;;;;;5017977;28;20262;-83
2022/11/04 07:03:48;;;;;;;3.27;2.57;;;9.90;99.90;;;;;;5023281;28;20236;-84
2022/11/04 07:06:14;;;;;;;4.27;2.90;;;9.90;99.90;;;;;;5005186;28;20220;-83
2022/11/04 07:08:41;;;;;;;3.47;2.80;;;9.90;99.90;;;;;;5025400;28;20227;-82
2022/11/04 07:11:08;;;;;;;4.20;3.00;;;9.90;99.90;;;;;;5025222;28;20232;-83
2022/11/04 07:13:36;;;;;;;3.30;2.93;;;9.80;99.90;;;;;;5026422;28;20230;-82
2022/11/04 07:16:05;;;;;;;4.30;2.97;;;9.80;99.90;;;;;;5026928;28;20274;-83
2022/11/04 07:18:31;;;;;;;3.13;2.83;;;9.80;99.90;;;;;;5014048;28;20227;-82
2022/11/04 07:21:00;;;;;;;5.07;3.17;;;9.70;99.90;;;;;;5013206;28;20335;-82
2022/11/04 07:23:27;;;;;;;4.60;3.30;;;9.80;99.90;;;;;;5010401;28;20220;-82
2022/11/04 07:25:54;;;;;;;4.10;3.70;;;9.80;99.90;;;;;;5029494;28;20223;-82
2022/11/04 07:28:20;;;;;;;3.30;3.00;;;9.80;99.90;;;;;;5003803;28;20259;-82
2022/11/04 07:30:47;;;;;;;3.73;2.90;;;9.80;99.90;;;;;;5027353;28;20235;-82
2022/11/04 07:33:14;;;;;;;4.03;3.37;;;9.80;99.90;;;;;;5020174;28;20233;-82
2022/11/04 07:35:40;;;;;;;3.43;3.10;;;9.80;99.90;;;;;;5027943;28;20285;-82
2022/11/04 07:38:09;;;;;;;4.17;3.40;;;9.80;99.90;;;;;;5022857;28;20220;-82
2022/11/04 07:40:35;;;;;;;5.33;3.47;;;9.80;99.90;;;;;;5011853;28;20894;-83
2022/11/04 07:43:02;;;;;;;4.80;3.53;;;9.80;99.90;;;;;;5021015;28;20302;-82
2022/11/04 07:45:36;;;;;;;4.63;3.47;;;9.80;99.90;;;;;;5012063;28;20218;-83
2022/11/04 07:48:03;;;;;;;5.67;3.40;;;9.80;99.90;;;;;;5030508;28;20238;-82
2022/11/04 07:50:30;;;;;;;7.10;4.13;;;9.80;99.90;;;;;;5009689;28;20232;-81
2022/11/04 07:52:57;;;;;;;4.27;3.87;;;9.80;99.90;;;;;;5005481;28;20229;-81
2022/11/04 07:55:25;;;;;;;5.17;3.80;;;9.80;99.90;;;;;;5030902;28;20329;-82
2022/11/04 07:57:56;;;;;;;5.07;4.17;;;9.90;99.90;;;;;;5028403;28;20278;-79
2022/11/04 08:00:23;;;;;;;4.37;3.97;;;9.90;99.90;;;;;;5031165;28;20368;-80
2022/11/04 08:02:49;;;;;;;4.53;4.10;;;10.00;99.90;;;;;;5015555;28;20243;-80
2022/11/04 08:05:16;;;;;;;4.43;3.77;;;10.10;99.90;;;;;;5040394;28;20304;-79
2022/11/04 08:07:43;;;;;;;6.50;4.17;;;10.10;99.90;;;;;;5034732;28;20231;-79
2022/11/04 08:10:10;;;;;;;4.90;4.40;;;10.20;99.90;;;;;;5009884;28;20305;-82
2022/11/04 08:12:38;;;;;;;5.87;4.60;;;10.20;99.90;;;;;;5010228;28;20707;-82
2022/11/04 08:15:06;;;;;;;4.90;4.33;;;10.20;99.90;;;;;;5028764;28;20219;-83
2022/11/04 08:17:32;;;;;;;5.43;4.87;;;10.20;99.90;;;;;;5027001;28;20314;-81
2022/11/04 08:19:59;;;;;;;5.33;3.90;;;10.30;99.90;;;;;;5024882;28;20633;-84
2022/11/04 08:22:26;;;;;;;6.93;4.60;;;10.30;99.90;;;;;;5028407;28;20596;-84
2022/11/04 08:24:52;;;;;;;4.83;4.33;;;10.30;99.90;;;;;;5030019;28;20232;-82
2022/11/04 08:27:19;;;;;;;4.97;4.40;;;10.30;99.90;;;;;;5030115;28;20708;-82
2022/11/04 08:29:47;;;;;;;5.70;4.20;;;10.30;99.90;;;;;;5019331;28;20223;-85
2022/11/04 08:32:15;;;;;;;4.70;4.30;;;10.30;99.90;;;;;;5026186;28;20224;-85
2022/11/04 08:34:42;;;;;;;5.63;4.33;;;10.30;99.90;;;;;;5038775;28;20239;-82
2022/11/04 08:37:08;;;;;;;6.13;4.20;;;10.40;99.90;;;;;;5030280;28;20700;-85
2022/11/04 08:39:35;;;;;;;4.87;4.10;;;10.30;99.90;;;;;;5030837;28;20857;-82
2022/11/04 08:42:02;;;;;;;7.23;4.57;;;10.30;99.90;;;;;;5031438;28;20224;-84
2022/11/04 08:44:32;;;;;;;7.20;4.60;;;10.30;99.90;;;;;;5015596;28;20224;-83
2022/11/04 08:47:00;;;;;;;5.40;4.67;;;10.30;99.90;;;;;;5006350;28;20225;-84
2022/11/04 08:49:27;;;;;;;4.87;4.37;;;10.30;99.90;;;;;;5037761;28;20224;-82
2022/11/04 08:51:56;;;;;;;4.70;4.30;;;10.30;99.90;;;;;;5021098;28;20302;-84
2022/11/04 08:54:23;;;;;;;7.60;5.13;;;10.30;99.90;;;;;;5027844;28;20720;-85
2022/11/04 08:56:49;;;;;;;8.93;5.00;;;10.30;99.90;;;;;;5012710;28;20236;-81
2022/11/04 08:59:16;;;;;;;5.60;4.47;;;10.40;99.90;;;;;;5013634;28;20230;-83
2022/11/04 09:01:45;;;;;;;4.87;4.40;;;10.40;99.90;;;;;;5031533;28;20318;-81
2022/11/04 09:04:13;;;;;;;5.37;4.73;;;10.40;99.90;;;;;;5011778;28;20232;-82
2022/11/04 09:06:41;;;;;;;6.37;4.67;;;10.50;99.90;;;;;;5012508;28;20713;-81
2022/11/04 09:09:12;;;;;;;5.60;4.73;;;10.50;99.90;;;;;;5012326;28;20263;-82
2022/11/04 09:11:40;;;;;;;5.33;4.60;;;10.60;99.90;;;;;;5031633;28;20348;-83
2022/11/04 09:14:07;;;;;;;4.93;4.43;;;10.60;99.90;;;;;;5030223;28;20244;-82
2022/11/04 09:16:35;;;;;;;5.97;4.83;;;10.70;99.90;;;;;;5031331;28;20235;-81
2022/11/04 09:19:02;;;;;;;5.40;4.47;;;10.70;99.90;;;;;;5030525;28;20241;-81
2022/11/04 09:21:30;;;;;;;4.70;4.20;;;10.70;99.90;;;;;;5013201;28;20518;-82
2022/11/04 09:23:57;;;;;;;5.00;4.50;;;10.80;99.90;;;;;;5030848;28;20880;-83
2022/11/04 09:26:28;;;;;;;5.33;4.50;;;10.80;99.90;;;;;;5013562;28;20746;-81
2022/11/04 09:28:56;;;;;;;5.13;4.20;;;10.90;99.90;;;;;;5031453;28;20233;-83
2022/11/04 09:31:24;;;;;;;5.97;4.17;;;11.00;99.90;;;;;;5013566;28;20706;-82
2022/11/04 09:33:50;;;;;;;5.60;3.67;;;11.20;99.90;;;;;;5030931;28;20305;-83
2022/11/04 09:36:17;;;;;;;3.77;3.47;;;11.40;99.90;;;;;;5013845;28;20304;-81
2022/11/04 09:38:45;;;;;;;3.83;3.27;;;11.70;99.90;;;;;;5032501;28;20300;-82
2022/11/04 09:41:30;;;;;;;3.87;3.50;;;12.00;99.90;;;;;;5013582;28;20294;-82
2022/11/04 09:44:09;;;;;;;4.60;3.40;;;12.20;99.90;;;;;;5031900;28;20255;-82
2022/11/04 09:46:37;;;;;;;3.53;3.23;;;12.30;99.90;;;;;;5028734;28;20390;-82
2022/11/04 09:49:08;;;;;;;7.50;3.40;;;12.40;99.90;;;;;;5027635;28;20232;-82
2022/11/04 09:51:37;;;;;;;3.73;3.27;;;12.40;99.90;;;;;;5028284;28;20225;-84
2022/11/04 09:54:12;;;;;;;3.10;2.80;;;12.40;99.90;;;;;;5027537;28;20230;-84
2022/11/04 09:56:43;;;;;;;3.77;2.80;;;12.30;99.90;;;;;;5027769;28;20846;-82
2022/11/04 09:59:13;;;;;;;3.20;2.10;;;12.30;99.90;;;;;;5027495;28;20347;-81
2022/11/04 10:01:44;;;;;;;3.10;2.33;;;12.20;99.90;;;;;;5010366;28;20236;-83
2022/11/04 10:04:24;;;;;;;2.80;2.50;;;12.20;99.90;;;;;;5027129;28;20235;-86
2022/11/04 10:07:10;;;;;;;2.73;2.43;;;12.30;99.90;;;;;;5011607;28;20261;-82
2022/11/04 10:09:50;;;;;;;5.30;2.40;;;12.40;99.90;;;;;;5031012;28;20223;-82
2022/11/04 10:12:30;;;;;;;2.50;2.13;;;12.60;99.90;;;;;;5013159;28;20767;-81
2022/11/04 10:15:12;;;;;;;3.00;2.20;;;12.70;99.90;;;;;;5031038;28;20231;-82
2022/11/04 10:17:58;;;;;;;2.73;2.30;;;12.80;99.90;;;;;;5031643;28;20228;-82
2022/11/04 10:20:36;;;;;;;3.73;2.80;;;12.80;99.90;;;;;;5050639;28;20252;-82
2022/11/04 10:23:14;;;;;;;2.60;2.40;;;12.70;99.90;;;;;;5042177;28;20259;-82
2022/11/04 10:25:53;;;;;;;2.97;2.67;;;12.70;99.90;;;;;;5029229;28;20253;-82
2022/11/04 10:28:26;;;;;;;3.37;2.67;;;12.60;99.90;;;;;;5036386;28;20661;-83
2022/11/04 10:30:52;;;;;;;2.87;2.57;;;12.60;99.90;;;;;;5027879;28;20757;-82
2022/11/04 10:33:28;;;;;;;3.87;2.60;;;12.50;99.90;;;;;;5003747;28;20707;-82
2022/11/04 10:35:58;;;;;;;3.90;3.37;;;12.40;99.90;;;;;;5019696;28;20680;-82
2022/11/04 10:38:33;;;;;;;3.60;3.20;;;12.40;99.90;;;;;;5002387;28;20311;-82
2022/11/04 10:41:01;;;;;;;3.20;2.90;;;12.30;99.90;;;;;;5014376;28;20224;-82
2022/11/04 10:43:32;;;;;;;3.43;2.57;;;12.30;99.90;;;;;;5018797;28;20727;-83
2022/11/04 10:46:30;;;;;;;3.20;2.33;;;12.30;99.90;;;;;;5017067;28;20219;-82
2022/11/04 10:49:03;;;;;;;3.77;2.73;;;12.20;99.90;;;;;;5011689;28;20233;-83
2022/11/04 10:51:30;;;;;;;3.03;2.70;;;12.20;99.90;;;;;;5032656;28;20283;-84
2022/11/04 10:53:58;;;;;;;3.90;2.97;;;12.20;99.90;;;;;;5009446;28;20303;-82
2022/11/04 10:56:35;;;;;;;3.37;2.70;;;12.20;99.90;;;;;;5034914;28;20224;-83
2022/11/04 10:59:22;;;;;;;2.90;2.60;;;12.30;99.90;;;;;;5014716;28;20224;-83
2022/11/04 11:01:51;;;;;;;3.43;2.80;;;12.30;99.90;;;;;;4997419;28;20956;-81
2022/11/04 11:04:26;;;;;;;3.70;2.80;;;12.30;99.90;;;;;;5022691;28;21021;-80
2022/11/04 11:06:55;;;;;;;3.53;2.90;;;12.40;99.90;;;;;;5025413;28;20226;-80
2022/11/04 11:09:28;;;;;;;5.63;3.00;;;12.50;99.90;;;;;;5025300;28;20224;-80
2022/11/04 11:11:59;;;;;;;3.00;2.70;;;12.50;99.90;;;;;;5023739;28;20227;-80
2022/11/04 11:14:36;;;;;;;3.13;2.83;;;12.60;99.90;;;;;;5023237;28;20225;-80
2022/11/04 11:17:24;;;;;;;3.03;2.70;;;12.60;99.90;;;;;;5029500;28;20796;-81
2022/11/04 11:19:58;;;;;;;6.30;2.50;;;12.60;99.90;;;;;;5031130;28;20322;-80
2022/11/04 11:22:39;;;;;;;2.90;2.40;;;12.70;99.90;;;;;;5019598;28;20312;-80
2022/11/04 11:25:14;;;;;;;2.77;2.57;;;12.70;99.90;;;;;;5029348;28;20234;-80
2022/11/04 11:27:47;;;;;;;3.70;2.13;;;12.80;99.90;;;;;;5022046;28;20234;-80
2022/11/04 11:30:23;;;;;;;3.90;2.20;;;12.90;99.90;;;;;;5024444;28;20239;-80
2022/11/04 11:32:54;;;;;;;3.80;2.60;;;13.00;99.90;;;;;;5025604;28;20224;-81
2022/11/04 11:35:25;;;;;;;2.30;2.10;;;13.20;99.90;;;;;;5026340;28;20225;-80
2022/11/04 11:37:52;;;;;;;2.50;1.97;;;13.30;99.90;;;;;;5029017;28;20243;-80
2022/11/04 11:40:28;;;;;;;1.97;1.60;;;13.40;99.90;;;;;;5024477;28;20654;-80
2022/11/04 11:42:58;;;;;;;2.73;1.47;;;13.50;99.90;;;;;;5024459;28;20249;-81
2022/11/04 11:45:26;;;;;;;2.50;1.40;;;13.50;99.90;;;;;;5007157;28;20311;-81
2022/11/04 11:47:55;;;;;;;3.10;1.50;;;13.60;99.90;;;;;;5020912;28;20230;-80
2022/11/04 11:50:28;;;;;;;1.43;1.33;;;13.60;99.90;;;;;;5021072;28;20250;-80
2022/11/04 11:53:12;;;;;;;2.13;1.13;;;13.70;99.90;;;;;;5027084;28;20323;-80
2022/11/04 11:55:42;;;;;;;3.20;1.43;;;13.80;99.90;;;;;;5026768;28;20256;-81
2022/11/04 11:58:17;;;;;;;2.80;1.20;;;13.80;99.90;;;;;;5022872;28;20247;-80
2022/11/04 12:00:48;;;;;;;4.87;1.63;;;13.80;99.90;;;;;;5026775;28;20237;-81
2022/11/04 12:03:19;;;;;;;2.53;1.27;;;13.90;99.90;;;;;;5002822;28;20235;-81
2022/11/04 12:05:54;;;;;;;1.87;1.23;;;13.80;99.90;;;;;;5018628;28;20237;-80
2022/11/04 12:08:39;;;;;;;2.73;1.20;;;13.90;99.90;;;;;;5025419;28;20215;-80
2022/11/04 12:11:12;;;;;;;2.83;1.27;;;13.90;99.90;;;;;;5019424;28;20713;-80
2022/11/04 12:13:47;;;;;;;2.30;0.93;;;13.90;99.90;;;;;;5020648;28;20280;-80
2022/11/04 12:16:25;;;;;;;3.00;0.90;;;14.00;99.90;;;;;;5022335;28;20787;-80
2022/11/04 12:19:26;;;;;;;2.10;0.87;;;14.00;99.90;;;;;;5004664;28;20968;-81
2022/11/04 12:21:59;;;;;;;2.13;1.10;;;14.00;99.90;;;;;;5017809;28;20289;-80
2022/11/04 12:24:34;;;;;;;1.83;1.17;;;14.10;99.90;;;;;;5025679;28;20228;-80
2022/11/04 12:27:11;;;;;;;2.93;0.80;;;14.20;99.90;;;;;;5030530;28;20250;-80
2022/11/04 12:29:55;;;;;;;2.80;0.80;;;14.20;99.90;;;;;;5025931;28;20662;-80
2022/11/04 12:32:29;;;;;;;3.20;0.93;;;14.20;99.90;;;;;;5021212;28;20233;-81
2022/11/04 12:35:10;;;;;;;2.77;0.80;;;14.30;99.90;;;;;;5024963;28;20222;-81
2022/11/04 12:37:45;;;;;;;4.13;0.87;;;14.20;99.90;;;;;;5027874;28;20220;-82
2022/11/04 12:40:19;;;;;;;2.90;0.73;;;14.20;99.90;;;;;;5004082;28;20223;-82
2022/11/04 12:43:03;;;;;;;1.40;0.80;;;14.10;99.90;;;;;;5024821;28;20770;-82
2022/11/04 12:45:38;;;;;;;4.83;0.80;;;14.10;99.90;;;;;;5028011;28;20237;-82
2022/11/04 12:48:09;;;;;;;4.00;0.93;;;14.00;99.90;;;;;;5021843;28;20250;-82
2022/11/04 12:50:49;;;;;;;4.53;1.07;;;14.00;99.90;;;;;;5012548;28;20941;-82
2022/11/04 12:53:39;;;;;;;3.20;0.80;;;14.00;99.90;;;;;;5022235;28;20223;-82
2022/11/04 12:56:09;;;;;;;3.80;0.90;;;14.10;99.90;;;;;;5008031;28;20313;-82
2022/11/04 12:58:49;;;;;;;5.93;1.03;;;14.10;99.90;;;;;;5021201;28;20635;-82
2022/11/04 13:01:21;;;;;;;4.00;0.90;;;14.10;99.90;;;;;;5017622;28;20332;-82
2022/11/04 13:03:53;;;;;;;3.20;0.87;;;14.10;99.90;;;;;;5008721;28;20244;-82
2022/11/04 13:06:26;;;;;;;2.03;0.63;;;14.20;99.90;;;;;;5020786;28;20282;-82
2022/11/04 13:08:58;;;;;;;2.23;0.73;;;14.20;99.90;;;;;;5031624;28;20497;-82
2022/11/04 13:11:31;;;;;;;2.43;0.70;;;14.10;99.90;;;;;;5010190;28;20226;-82
2022/11/04 13:14:02;;;;;;;6.43;1.13;;;14.10;99.90;;;;;;5025876;28;20237;-82
2022/11/04 13:16:35;;;;;;;4.80;0.93;;;14.10;99.90;;;;;;5026034;28;20731;-82
2022/11/04 13:19:02;;;;;;;7.20;1.10;;;14.00;99.90;;;;;;5016503;28;20234;-82
2022/11/04 13:21:35;;;;;;;3.73;1.07;;;14.00;99.90;;;;;;4995010;28;20232;-83
2022/11/04 13:24:05;;;;;;;2.90;0.80;;;13.90;99.90;;;;;;4991808;28;20234;-83
2022/11/04 13:26:32;;;;;;;4.87;1.03;;;13.80;99.90;;;;;;5019062;28;20251;-83
2022/11/04 13:29:06;;;;;;;2.17;0.70;;;13.80;99.90;;;;;;5011395;28;20234;-84
2022/11/04 13:31:46;;;;;;;2.83;1.10;;;13.70;99.90;;;;;;5030558;28;20227;-83
2022/11/04 13:34:23;;;;;;;2.10;0.80;;;13.70;99.90;;;;;;5028977;28;20238;-83
2022/11/04 13:37:02;;;;;;;3.23;0.90;;;13.70;99.90;;;;;;5012630;28;20241;-82
2022/11/04 13:39:33;;;;;;;5.40;1.77;;;13.60;99.90;;;;;;5028500;28;20246;-81
2022/11/04 13:42:28;;;;;;;3.93;1.73;;;13.60;99.90;;;;;;5014981;28;20328;-81
2022/11/04 13:44:57;;;;;;;4.70;1.43;;;13.60;99.90;;;;;;5008252;28;20224;-82
2022/11/04 13:47:34;;;;;;;3.17;0.63;;;13.70;99.90;;;;;;5025497;28;20272;-81